sensor_id;sensor_type;location;lat;lon;timestamp;pressure;altitude;pressure_sealevel;temperature;humidity
48964;BME280;34776;48.180;16.420;2023-04-21T00:01:49;99797.00;;;10.01;78.52
48964;BME280;34776;48.180;16.420;2023-04-21T00:04:14;99799.84;;;9.98;78.66
48964;BME280;34776;48.180;16.420;2023-04-21T00:06:41;99802.56;;;9.96;78.73
48964;BME280;34776;48.180;16.420;2023-04-21T00:09:08;99805.28;;;9.94;78.79
48964;BME280;34776;48.180;16.420;2023-04-21T00:11:35;99802.91;;;9.88;79.26
48964;BME280;34776;48.180;16.420;2023-04-21T00:14:00;99799.72;;;9.82;79.62
48964;BME280;34776;48.180;16.420;2023-04-21T00:16:26;99791.91;;;9.79;79.60
48964;BME280;34776;48.180;16.420;2023-04-21T00:18:51;99790.09;;;9.79;79.68
48964;BME280;34776;48.180;16.420;2023-04-21T00:21:16;99785.66;;;9.80;79.89
48964;BME280;34776;48.180;16.420;2023-04-21T00:23:42;99788.31;;;9.80;79.92
48964;BME280;34776;48.180;16.420;2023-04-21T00:26:07;99780.22;;;9.83;79.87
48964;BME280;34776;48.180;16.420;2023-04-21T00:28:33;99783.63;;;9.85;79.68
48964;BME280;34776;48.180;16.420;2023-04-21T00:30:59;99788.94;;;9.85;79.59
48964;BME280;34776;48.180;16.420;2023-04-21T00:33:25;99789.81;;;9.85;79.47
48964;BME280;34776;48.180;16.420;2023-04-21T00:35:50;99792.47;;;9.85;79.68
48964;BME280;34776;48.180;16.420;2023-04-21T00:38:18;99792.53;;;9.84;79.59
48964;BME280;34776;48.180;16.420;2023-04-21T00:40:44;99790.91;;;9.81;79.92
48964;BME280;34776;48.180;16.420;2023-04-21T00:43:09;99786.50;;;9.80;80.15
48964;BME280;34776;48.180;16.420;2023-04-21T00:45:34;99788.38;;;9.78;79.83
48964;BME280;34776;48.180;16.420;2023-04-21T00:48:00;99791.19;;;9.75;79.72
48964;BME280;34776;48.180;16.420;2023-04-21T00:50:25;99792.09;;;9.74;79.91
48964;BME280;34776;48.180;16.420;2023-04-21T00:52:51;99794.91;;;9.71;80.29
48964;BME280;34776;48.180;16.420;2023-04-21T00:55:16;99802.94;;;9.69;79.98
48964;BME280;34776;48.180;16.420;2023-04-21T00:57:42;99795.16;;;9.66;79.91
48964;BME280;34776;48.180;16.420;2023-04-21T01:00:08;99796.13;;;9.64;79.98
48964;BME280;34776;48.180;16.420;2023-04-21T01:02:35;99795.44;;;9.60;80.17
48964;BME280;34776;48.180;16.420;2023-04-21T01:05:04;99796.50;;;9.56;80.12
48964;BME280;34776;48.180;16.420;2023-04-21T01:07:31;99795.72;;;9.54;79.93
48964;BME280;34776;48.180;16.420;2023-04-21T01:09:56;99798.59;;;9.49;79.88
48964;BME280;34776;48.180;16.420;2023-04-21T01:12:22;99796.94;;;9.47;79.99
48964;BME280;34776;48.180;16.420;2023-04-21T01:14:47;99799.69;;;9.45;80.33
48964;BME280;34776;48.180;16.420;2023-04-21T01:17:13;99793.59;;;9.43;80.29
48964;BME280;34776;48.180;16.420;2023-04-21T01:19:41;99799.81;;;9.42;80.30
48964;BME280;34776;48.180;16.420;2023-04-21T01:22:08;99796.38;;;9.40;80.37
48964;BME280;34776;48.180;16.420;2023-04-21T01:24:44;99798.31;;;9.37;80.24
48964;BME280;34776;48.180;16.420;2023-04-21T01:27:16;99795.84;;;9.32;80.99
48964;BME280;34776;48.180;16.420;2023-04-21T01:29:43;99788.84;;;9.31;81.24
48964;BME280;34776;48.180;16.420;2023-04-21T01:32:13;99792.41;;;9.30;81.17
48964;BME280;34776;48.180;16.420;2023-04-21T01:34:40;99799.75;;;9.25;81.40
48964;BME280;34776;48.180;16.420;2023-04-21T01:37:10;99789.41;;;9.19;81.69
48964;BME280;34776;48.180;16.420;2023-04-21T01:39:41;99786.13;;;9.13;81.66
48964;BME280;34776;48.180;16.420;2023-04-21T01:42:07;99792.34;;;9.12;81.58
48964;BME280;34776;48.180;16.420;2023-04-21T01:44:33;99797.66;;;9.12;81.81
48964;BME280;34776;48.180;16.420;2023-04-21T01:46:58;99795.00;;;9.12;81.93
48964;BME280;34776;48.180;16.420;2023-04-21T01:49:24;99791.56;;;9.10;81.85
48964;BME280;34776;48.180;16.420;2023-04-21T01:51:50;99797.81;;;9.09;81.73
48964;BME280;34776;48.180;16.420;2023-04-21T01:54:15;99792.41;;;9.11;81.69
48964;BME280;34776;48.180;16.420;2023-04-21T01:56:41;99791.56;;;9.10;81.66
48964;BME280;34776;48.180;16.420;2023-04-21T01:59:06;99791.72;;;9.07;81.57
48964;BME280;34776;48.180;16.420;2023-04-21T02:01:31;99785.47;;;9.08;81.63
48964;BME280;34776;48.180;16.420;2023-04-21T02:03:57;99787.91;;;9.13;81.68
48964;BME280;34776;48.180;16.420;2023-04-21T02:06:22;99787.72;;;9.18;81.89
48964;BME280;34776;48.180;16.420;2023-04-21T02:08:47;99789.13;;;9.25;81.72
48964;BME280;34776;48.180;16.420;2023-04-21T02:11:13;99785.41;;;9.29;81.56
48964;BME280;34776;48.180;16.420;2023-04-21T02:13:38;99782.75;;;9.29;81.53
48964;BME280;34776;48.180;16.420;2023-04-21T02:16:03;99788.06;;;9.29;81.49
48964;BME280;34776;48.180;16.420;2023-04-21T02:18:29;99791.44;;;9.32;81.80
48964;BME280;34776;48.180;16.420;2023-04-21T02:20:55;99787.41;;;9.43;81.78
48964;BME280;34776;48.180;16.420;2023-04-21T02:23:21;99790.56;;;9.51;81.64
48964;BME280;34776;48.180;16.420;2023-04-21T02:25:46;99786.53;;;9.61;81.61
48964;BME280;34776;48.180;16.420;2023-04-21T02:28:12;99783.34;;;9.72;81.39
48964;BME280;34776;48.180;16.420;2023-04-21T02:30:37;99787.75;;;9.73;81.04
48964;BME280;34776;48.180;16.420;2023-04-21T02:33:02;99786.91;;;9.72;80.95
48964;BME280;34776;48.180;16.420;2023-04-21T02:35:28;99784.25;;;9.72;81.10
48964;BME280;34776;48.180;16.420;2023-04-21T02:37:53;99780.81;;;9.70;80.96
48964;BME280;34776;48.180;16.420;2023-04-21T02:40:18;99776.66;;;9.65;81.09
48964;BME280;34776;48.180;16.420;2023-04-21T02:42:44;99784.88;;;9.59;81.11
48964;BME280;34776;48.180;16.420;2023-04-21T02:45:09;99785.25;;;9.51;81.33
48964;BME280;34776;48.180;16.420;2023-04-21T02:47:35;99784.84;;;9.41;81.55
48964;BME280;34776;48.180;16.420;2023-04-21T02:50:00;99779.94;;;9.32;81.64
48964;BME280;34776;48.180;16.420;2023-04-21T02:52:26;99780.22;;;9.26;81.89
48964;BME280;34776;48.180;16.420;2023-04-21T02:54:52;99787.63;;;9.19;82.27
48964;BME280;34776;48.180;16.420;2023-04-21T02:57:17;99781.63;;;9.16;82.45
48964;BME280;34776;48.180;16.420;2023-04-21T02:59:42;99786.13;;;9.13;82.53
48964;BME280;34776;48.180;16.420;2023-04-21T03:02:07;99789.69;;;9.12;82.59
48964;BME280;34776;48.180;16.420;2023-04-21T03:04:33;99789.84;;;9.09;82.66
48964;BME280;34776;48.180;16.420;2023-04-21T03:06:58;99785.53;;;9.07;82.69
48964;BME280;34776;48.180;16.420;2023-04-21T03:09:23;99795.44;;;9.03;82.84
48964;BME280;34776;48.180;16.420;2023-04-21T03:11:49;99796.41;;;9.01;82.84
48964;BME280;34776;48.180;16.420;2023-04-21T03:14:14;99790.41;;;8.97;82.81
48964;BME280;34776;48.180;16.420;2023-04-21T03:16:40;99793.97;;;8.96;82.85
48964;BME280;34776;48.180;16.420;2023-04-21T03:19:05;99795.81;;;8.94;82.83
48964;BME280;34776;48.180;16.420;2023-04-21T03:21:30;99794.19;;;8.91;82.65
48964;BME280;34776;48.180;16.420;2023-04-21T03:23:56;99792.53;;;8.89;82.71
48964;BME280;34776;48.180;16.420;2023-04-21T03:26:21;99799.69;;;8.87;82.73
48964;BME280;34776;48.180;16.420;2023-04-21T03:28:46;99802.41;;;8.85;82.99
48964;BME280;34776;48.180;16.420;2023-04-21T03:31:12;99803.41;;;8.83;82.89
48964;BME280;34776;48.180;16.420;2023-04-21T03:33:37;99798.38;;;8.77;83.05
48964;BME280;34776;48.180;16.420;2023-04-21T03:36:02;99791.47;;;8.72;83.20
48964;BME280;34776;48.180;16.420;2023-04-21T03:38:28;99801.22;;;8.72;83.05
48964;BME280;34776;48.180;16.420;2023-04-21T03:40:54;99800.50;;;8.68;83.03
48964;BME280;34776;48.180;16.420;2023-04-21T03:43:20;99805.94;;;8.65;82.91
48964;BME280;34776;48.180;16.420;2023-04-21T03:45:45;99799.91;;;8.62;83.28
48964;BME280;34776;48.180;16.420;2023-04-21T03:48:11;99800.91;;;8.59;83.22
48964;BME280;34776;48.180;16.420;2023-04-21T03:50:37;99794.72;;;8.59;83.27
48964;BME280;34776;48.180;16.420;2023-04-21T03:53:02;99800.09;;;8.57;83.16
48964;BME280;34776;48.180;16.420;2023-04-21T03:55:27;99801.81;;;8.58;83.06
48964;BME280;34776;48.180;16.420;2023-04-21T03:57:53;99806.31;;;8.56;83.06
48964;BME280;34776;48.180;16.420;2023-04-21T04:00:18;99797.47;;;8.57;83.13
48964;BME280;34776;48.180;16.420;2023-04-21T04:02:45;99801.03;;;8.56;83.29
48964;BME280;34776;48.180;16.420;2023-04-21T04:05:10;99803.72;;;8.54;83.32
48964;BME280;34776;48.180;16.420;2023-04-21T04:07:35;99807.25;;;8.55;83.24
48964;BME280;34776;48.180;16.420;2023-04-21T04:10:01;99810.91;;;8.52;83.45
48964;BME280;34776;48.180;16.420;2023-04-21T04:12:26;99813.63;;;8.51;83.82
48964;BME280;34776;48.180;16.420;2023-04-21T04:14:51;99813.72;;;8.48;83.67
48964;BME280;34776;48.180;16.420;2023-04-21T04:17:17;99816.25;;;8.51;83.75
48964;BME280;34776;48.180;16.420;2023-04-21T04:19:42;99816.91;;;8.56;83.44
48964;BME280;34776;48.180;16.420;2023-04-21T04:22:08;99817.66;;;8.60;83.43
48964;BME280;34776;48.180;16.420;2023-04-21T04:24:33;99823.94;;;8.57;83.63
48964;BME280;34776;48.180;16.420;2023-04-21T04:27:00;99820.34;;;8.58;83.73
48964;BME280;34776;48.180;16.420;2023-04-21T04:29:26;99823.69;;;8.63;83.68
48964;BME280;34776;48.180;16.420;2023-04-21T04:31:52;99824.22;;;8.71;83.50
48964;BME280;34776;48.180;16.420;2023-04-21T04:34:17;99830.00;;;8.80;83.11
48964;BME280;34776;48.180;16.420;2023-04-21T04:36:43;99829.75;;;8.86;82.91
48964;BME280;34776;48.180;16.420;2023-04-21T04:39:09;99835.78;;;8.89;82.99
48964;BME280;34776;48.180;16.420;2023-04-21T04:41:35;99839.00;;;8.96;82.68
48964;BME280;34776;48.180;16.420;2023-04-21T04:44:01;99832.44;;;9.05;82.60
48964;BME280;34776;48.180;16.420;2023-04-21T04:46:28;99833.84;;;9.13;82.29
48964;BME280;34776;48.180;16.420;2023-04-21T04:48:54;99830.81;;;9.21;82.53
48964;BME280;34776;48.180;16.420;2023-04-21T04:51:19;99840.16;;;9.30;82.24
48964;BME280;34776;48.180;16.420;2023-04-21T04:53:44;99833.66;;;9.37;82.30
48964;BME280;34776;48.180;16.420;2023-04-21T04:56:10;99835.28;;;9.40;82.17
48964;BME280;34776;48.180;16.420;2023-04-21T04:58:35;99829.84;;;9.43;82.28
48964;BME280;34776;48.180;16.420;2023-04-21T05:01:10;99838.28;;;9.51;82.22
48964;BME280;34776;48.180;16.420;2023-04-21T05:03:35;99840.47;;;9.62;81.73
48964;BME280;34776;48.180;16.420;2023-04-21T05:06:01;99839.19;;;9.70;81.66
48964;BME280;34776;48.180;16.420;2023-04-21T05:08:26;99848.31;;;9.82;81.53
48964;BME280;34776;48.180;16.420;2023-04-21T05:10:52;99844.16;;;9.95;81.40
48964;BME280;34776;48.180;16.420;2023-04-21T05:13:17;99847.31;;;10.04;81.09
48964;BME280;34776;48.180;16.420;2023-04-21T05:15:42;99850.28;;;10.15;80.73
48964;BME280;34776;48.180;16.420;2023-04-21T05:18:08;99854.28;;;10.24;80.71
48964;BME280;34776;48.180;16.420;2023-04-21T05:20:33;99860.13;;;10.32;80.37
48964;BME280;34776;48.180;16.420;2023-04-21T05:22:58;99861.75;;;10.34;80.42
48964;BME280;34776;48.180;16.420;2023-04-21T05:25:24;99855.06;;;10.45;80.44
48964;BME280;34776;48.180;16.420;2023-04-21T05:27:49;99860.66;;;10.56;80.31
48964;BME280;34776;48.180;16.420;2023-04-21T05:30:14;99854.84;;;10.67;79.80
48964;BME280;34776;48.180;16.420;2023-04-21T05:32:40;99861.31;;;10.79;79.66
48964;BME280;34776;48.180;16.420;2023-04-21T05:35:05;99853.66;;;10.90;79.02
48964;BME280;34776;48.180;16.420;2023-04-21T05:37:31;99857.63;;;10.99;78.74
48964;BME280;34776;48.180;16.420;2023-04-21T05:39:56;99854.41;;;11.09;78.08
48964;BME280;34776;48.180;16.420;2023-04-21T05:42:21;99857.41;;;11.19;77.98
48964;BME280;34776;48.180;16.420;2023-04-21T05:44:47;99861.31;;;11.29;77.75
48964;BME280;34776;48.180;16.420;2023-04-21T05:47:12;99862.47;;;11.41;77.58
48964;BME280;34776;48.180;16.420;2023-04-21T05:49:37;99866.50;;;11.48;76.94
48964;BME280;34776;48.180;16.420;2023-04-21T05:52:03;99857.50;;;11.51;76.74
48964;BME280;34776;48.180;16.420;2023-04-21T05:54:28;99863.69;;;11.51;76.66
48964;BME280;34776;48.180;16.420;2023-04-21T05:56:53;99861.88;;;11.52;76.36
48964;BME280;34776;48.180;16.420;2023-04-21T05:59:19;99860.84;;;11.54;76.47
48964;BME280;34776;48.180;16.420;2023-04-21T06:01:45;99866.00;;;11.57;76.40
48964;BME280;34776;48.180;16.420;2023-04-21T06:04:10;99861.03;;;11.67;76.28
48964;BME280;34776;48.180;16.420;2023-04-21T06:06:36;99869.28;;;11.78;76.15
48964;BME280;34776;48.180;16.420;2023-04-21T06:09:01;99870.19;;;11.95;75.59
48964;BME280;34776;48.180;16.420;2023-04-21T06:11:26;99874.31;;;12.16;75.11
48964;BME280;34776;48.180;16.420;2023-04-21T06:13:52;99870.13;;;12.43;74.30
48964;BME280;34776;48.180;16.420;2023-04-21T06:16:22;99870.25;;;12.55;73.23
48964;BME280;34776;48.180;16.420;2023-04-21T06:18:47;99868.50;;;12.70;72.75
48964;BME280;34776;48.180;16.420;2023-04-21T06:21:12;99864.34;;;12.80;72.42
48964;BME280;34776;48.180;16.420;2023-04-21T06:23:38;99869.31;;;12.87;72.19
48964;BME280;34776;48.180;16.420;2023-04-21T06:26:05;99864.00;;;13.01;71.48
48964;BME280;34776;48.180;16.420;2023-04-21T06:28:31;99863.44;;;13.25;71.30
48964;BME280;34776;48.180;16.420;2023-04-21T06:30:59;99855.84;;;13.62;70.69
48964;BME280;34776;48.180;16.420;2023-04-21T06:33:25;99868.34;;;14.02;69.31
48964;BME280;34776;48.180;16.420;2023-04-21T06:35:51;99863.16;;;14.28;68.18
48964;BME280;34776;48.180;16.420;2023-04-21T06:38:17;99867.78;;;14.66;67.11
48964;BME280;34776;48.180;16.420;2023-04-21T06:40:42;99869.66;;;15.30;65.84
48964;BME280;34776;48.180;16.420;2023-04-21T06:43:08;99863.50;;;15.92;64.01
48964;BME280;34776;48.180;16.420;2023-04-21T06:45:33;99864.25;;;16.18;62.34
48964;BME280;34776;48.180;16.420;2023-04-21T06:47:58;99865.56;;;16.36;61.42
48964;BME280;34776;48.180;16.420;2023-04-21T06:50:24;99868.47;;;16.57;61.10
48964;BME280;34776;48.180;16.420;2023-04-21T06:52:49;99862.72;;;17.33;59.37
48964;BME280;34776;48.180;16.420;2023-04-21T06:55:14;99860.91;;;20.60;54.90
48964;BME280;34776;48.180;16.420;2023-04-21T06:57:40;99859.00;;;24.65;47.03
48964;BME280;34776;48.180;16.420;2023-04-21T07:00:05;99855.13;;;26.43;42.60
48964;BME280;34776;48.180;16.420;2023-04-21T07:02:31;99848.88;;;27.27;39.45
48964;BME280;34776;48.180;16.420;2023-04-21T07:04:56;99853.88;;;27.83;38.80
48964;BME280;34776;48.180;16.420;2023-04-21T07:07:22;99859.78;;;27.57;38.92
48964;BME280;34776;48.180;16.420;2023-04-21T07:09:47;99856.50;;;27.61;38.51
48964;BME280;34776;48.180;16.420;2023-04-21T07:12:13;99855.03;;;29.67;36.47
48964;BME280;34776;48.180;16.420;2023-04-21T07:14:38;99860.28;;;30.65;34.00
48964;BME280;34776;48.180;16.420;2023-04-21T07:17:04;99858.78;;;31.69;32.28
48964;BME280;34776;48.180;16.420;2023-04-21T07:19:29;99854.16;;;32.92;31.25
48964;BME280;34776;48.180;16.420;2023-04-21T07:21:54;99849.66;;;34.03;29.29
48964;BME280;34776;48.180;16.420;2023-04-21T07:24:20;99853.13;;;34.78;28.08
48964;BME280;34776;48.180;16.420;2023-04-21T07:26:45;99858.50;;;35.26;27.74
48964;BME280;34776;48.180;16.420;2023-04-21T07:29:10;99854.00;;;35.61;26.91
48964;BME280;34776;48.180;16.420;2023-04-21T07:31:36;99858.66;;;34.78;27.37
48964;BME280;34776;48.180;16.420;2023-04-21T07:34:01;99857.09;;;34.93;26.71
48964;BME280;34776;48.180;16.420;2023-04-21T07:36:26;99851.69;;;35.93;25.82
48964;BME280;34776;48.180;16.420;2023-04-21T07:38:52;99852.34;;;36.24;24.80
48964;BME280;34776;48.180;16.420;2023-04-21T07:41:18;99855.22;;;36.29;24.97
48964;BME280;34776;48.180;16.420;2023-04-21T07:43:43;99847.63;;;37.32;24.38
48964;BME280;34776;48.180;16.420;2023-04-21T07:46:09;99850.75;;;38.46;23.66
48964;BME280;34776;48.180;16.420;2023-04-21T07:48:38;99847.19;;;38.78;22.60
48964;BME280;34776;48.180;16.420;2023-04-21T07:51:03;99853.13;;;38.10;22.83
48964;BME280;34776;48.180;16.420;2023-04-21T07:53:28;99842.63;;;37.51;23.48
48964;BME280;34776;48.180;16.420;2023-04-21T07:55:54;99857.50;;;38.50;22.45
48964;BME280;34776;48.180;16.420;2023-04-21T07:58:20;99852.31;;;39.66;21.32
48964;BME280;34776;48.180;16.420;2023-04-21T08:00:46;99859.28;;;40.32;20.59
48964;BME280;34776;48.180;16.420;2023-04-21T08:03:11;99850.97;;;40.47;20.32
48964;BME280;34776;48.180;16.420;2023-04-21T08:05:37;99845.41;;;41.14;19.58
48964;BME280;34776;48.180;16.420;2023-04-21T08:08:02;99848.50;;;41.28;19.05
48964;BME280;34776;48.180;16.420;2023-04-21T08:10:28;99843.72;;;40.46;19.26
48964;BME280;34776;48.180;16.420;2023-04-21T08:12:53;99846.28;;;40.78;19.09
48964;BME280;34776;48.180;16.420;2023-04-21T08:15:19;99841.00;;;40.97;18.56
48964;BME280;34776;48.180;16.420;2023-04-21T08:17:45;99841.53;;;40.94;18.49
48964;BME280;34776;48.180;16.420;2023-04-21T08:20:10;99848.25;;;41.04;18.21
48964;BME280;34776;48.180;16.420;2023-04-21T08:22:36;99847.56;;;41.68;18.01
48964;BME280;34776;48.180;16.420;2023-04-21T08:25:02;99849.09;;;42.15;17.61
48964;BME280;34776;48.180;16.420;2023-04-21T08:27:28;99845.56;;;42.44;16.94
48964;BME280;34776;48.180;16.420;2023-04-21T08:29:53;99839.72;;;42.41;16.79
48964;BME280;34776;48.180;16.420;2023-04-21T08:32:18;99835.44;;;42.09;16.45
48964;BME280;34776;48.180;16.420;2023-04-21T08:34:52;99842.28;;;42.32;16.12
48964;BME280;34776;48.180;16.420;2023-04-21T08:37:17;99829.97;;;42.33;15.97
48964;BME280;34776;48.180;16.420;2023-04-21T08:39:44;99834.09;;;42.01;15.88
48964;BME280;34776;48.180;16.420;2023-04-21T08:42:11;99829.56;;;41.20;16.29
48964;BME280;34776;48.180;16.420;2023-04-21T08:44:37;99820.38;;;40.93;16.79
48964;BME280;34776;48.180;16.420;2023-04-21T08:47:03;99831.47;;;40.52;16.32
48964;BME280;34776;48.180;16.420;2023-04-21T08:49:29;99829.50;;;40.53;16.02
48964;BME280;34776;48.180;16.420;2023-04-21T08:51:55;99837.34;;;40.56;15.66
48964;BME280;34776;48.180;16.420;2023-04-21T08:54:21;99824.81;;;38.95;16.33
48964;BME280;34776;48.180;16.420;2023-04-21T08:56:47;99826.75;;;37.64;17.64
48964;BME280;34776;48.180;16.420;2023-04-21T08:59:12;99823.81;;;38.20;17.54
48964;BME280;34776;48.180;16.420;2023-04-21T09:02:06;99817.78;;;42.18;14.54
48964;BME280;34776;48.180;16.420;2023-04-21T09:04:32;99824.25;;;44.18;13.33
48964;BME280;34776;48.180;16.420;2023-04-21T09:06:58;99818.97;;;42.57;14.28
48964;BME280;34776;48.180;16.420;2023-04-21T09:09:23;99816.06;;;42.28;14.35
48964;BME280;34776;48.180;16.420;2023-04-21T09:11:58;99815.91;;;40.82;14.26
48964;BME280;34776;48.180;16.420;2023-04-21T09:14:31;99799.44;;;36.66;16.75
48964;BME280;34776;48.180;16.420;2023-04-21T09:17:02;99806.88;;;33.02;20.07
48964;BME280;34776;48.180;16.420;2023-04-21T09:19:29;99809.00;;;30.52;22.41
48964;BME280;34776;48.180;16.420;2023-04-21T09:21:54;99809.72;;;28.73;23.90
48964;BME280;34776;48.180;16.420;2023-04-21T09:24:20;99814.69;;;27.76;24.36
48964;BME280;34776;48.180;16.420;2023-04-21T09:26:50;99818.22;;;26.64;24.95
48964;BME280;34776;48.180;16.420;2023-04-21T09:29:16;99819.31;;;26.00;25.73
48964;BME280;34776;48.180;16.420;2023-04-21T09:31:43;99818.03;;;25.80;25.77
48964;BME280;34776;48.180;16.420;2023-04-21T09:34:22;99820.09;;;25.69;25.50
48964;BME280;34776;48.180;16.420;2023-04-21T09:36:58;99808.84;;;25.81;25.47
48964;BME280;34776;48.180;16.420;2023-04-21T09:39:23;99808.50;;;25.76;25.12
48964;BME280;34776;48.180;16.420;2023-04-21T09:41:49;99814.09;;;25.90;25.84
48964;BME280;34776;48.180;16.420;2023-04-21T09:44:14;99811.19;;;25.92;26.14
48964;BME280;34776;48.180;16.420;2023-04-21T09:46:42;99811.09;;;26.08;25.76
48964;BME280;34776;48.180;16.420;2023-04-21T09:49:09;99796.63;;;25.77;25.84
48964;BME280;34776;48.180;16.420;2023-04-21T09:51:37;99791.88;;;25.70;26.33
48964;BME280;34776;48.180;16.420;2023-04-21T09:54:13;99790.84;;;25.71;25.19
48964;BME280;34776;48.180;16.420;2023-04-21T09:56:40;99799.53;;;25.67;25.71
48964;BME280;34776;48.180;16.420;2023-04-21T09:59:10;99794.31;;;25.49;26.29
48964;BME280;34776;48.180;16.420;2023-04-21T10:01:38;99791.16;;;25.37;26.20
48964;BME280;34776;48.180;16.420;2023-04-21T10:04:04;99794.09;;;25.03;26.23
48964;BME280;34776;48.180;16.420;2023-04-21T10:06:30;99787.34;;;24.49;26.65
48964;BME280;34776;48.180;16.420;2023-04-21T10:08:57;99793.41;;;24.27;27.58
48964;BME280;34776;48.180;16.420;2023-04-21T10:11:23;99794.53;;;24.00;27.01
48964;BME280;34776;48.180;16.420;2023-04-21T10:13:48;99792.13;;;23.80;26.25
48964;BME280;34776;48.180;16.420;2023-04-21T10:16:16;99792.00;;;23.56;26.59
48964;BME280;34776;48.180;16.420;2023-04-21T10:18:43;99780.75;;;23.42;27.00
48964;BME280;34776;48.180;16.420;2023-04-21T10:21:11;99774.53;;;23.50;27.40
48964;BME280;34776;48.180;16.420;2023-04-21T10:23:41;99769.28;;;23.57;27.64
48964;BME280;34776;48.180;16.420;2023-04-21T10:26:22;99769.78;;;23.52;26.75
48964;BME280;34776;48.180;16.420;2023-04-21T10:29:04;99770.06;;;23.41;26.02
48964;BME280;34776;48.180;16.420;2023-04-21T10:31:34;99767.97;;;23.26;27.37
48964;BME280;34776;48.180;16.420;2023-04-21T10:39:10;99765.22;;;23.18;27.96
48964;BME280;34776;48.180;16.420;2023-04-21T10:41:37;99751.72;;;23.35;27.98
48964;BME280;34776;48.180;16.420;2023-04-21T10:46:38;99751.03;;;23.33;28.56
48964;BME280;34776;48.180;16.420;2023-04-21T10:49:08;99752.09;;;23.40;28.21
48964;BME280;34776;48.180;16.420;2023-04-21T10:57:07;99744.13;;;23.81;27.99
48964;BME280;34776;48.180;16.420;2023-04-21T10:59:34;99736.00;;;23.89;27.26
48964;BME280;34776;48.180;16.420;2023-04-21T11:02:01;99741.41;;;23.81;26.79
48964;BME280;34776;48.180;16.420;2023-04-21T11:04:26;99737.69;;;23.82;26.86
48964;BME280;34776;48.180;16.420;2023-04-21T11:09:31;99734.34;;;24.04;26.77
48964;BME280;34776;48.180;16.420;2023-04-21T11:11:57;99734.03;;;24.24;26.87
48964;BME280;34776;48.180;16.420;2023-04-21T11:14:23;99731.97;;;24.26;26.47
48964;BME280;34776;48.180;16.420;2023-04-21T11:16:48;99729.28;;;24.34;26.57
48964;BME280;34776;48.180;16.420;2023-04-21T11:19:14;99725.00;;;24.40;26.01
48964;BME280;34776;48.180;16.420;2023-04-21T11:21:40;99733.34;;;24.46;26.14
48964;BME280;34776;48.180;16.420;2023-04-21T11:24:07;99730.44;;;24.48;25.36
48964;BME280;34776;48.180;16.420;2023-04-21T11:26:34;99717.72;;;24.32;25.71
48964;BME280;34776;48.180;16.420;2023-04-21T11:29:06;99712.63;;;24.21;25.44
48964;BME280;34776;48.180;16.420;2023-04-21T11:31:33;99708.03;;;24.29;25.98
48964;BME280;34776;48.180;16.420;2023-04-21T11:34:00;99712.63;;;24.37;25.68
48964;BME280;34776;48.180;16.420;2023-04-21T11:36:25;99706.19;;;24.38;25.50
48964;BME280;34776;48.180;16.420;2023-04-21T11:38:51;99717.38;;;24.43;25.46
48964;BME280;34776;48.180;16.420;2023-04-21T11:41:23;99707.88;;;24.47;25.49
48964;BME280;34776;48.180;16.420;2023-04-21T11:43:50;99705.03;;;24.49;25.63
48964;BME280;34776;48.180;16.420;2023-04-21T11:46:16;99700.41;;;24.58;25.13
48964;BME280;34776;48.180;16.420;2023-04-21T11:48:42;99705.31;;;24.70;25.17
48964;BME280;34776;48.180;16.420;2023-04-21T11:51:17;99700.41;;;24.74;24.15
48964;BME280;34776;48.180;16.420;2023-04-21T11:53:45;99709.56;;;24.65;24.96
48964;BME280;34776;48.180;16.420;2023-04-21T11:56:10;99704.34;;;24.55;25.23
48964;BME280;34776;48.180;16.420;2023-04-21T11:58:37;99700.25;;;24.59;25.61
48964;BME280;34776;48.180;16.420;2023-04-21T12:01:07;99689.19;;;24.69;24.99
48964;BME280;34776;48.180;16.420;2023-04-21T12:03:33;99701.03;;;24.92;25.53
48964;BME280;34776;48.180;16.420;2023-04-21T12:05:58;99687.75;;;24.98;24.46
48964;BME280;34776;48.180;16.420;2023-04-21T12:08:28;99689.00;;;24.79;24.25
48964;BME280;34776;48.180;16.420;2023-04-21T12:10:53;99689.50;;;24.90;24.98
48964;BME280;34776;48.180;16.420;2023-04-21T12:13:22;99686.44;;;24.85;24.09
48964;BME280;34776;48.180;16.420;2023-04-21T12:15:48;99687.13;;;24.79;24.40
48964;BME280;34776;48.180;16.420;2023-04-21T12:18:13;99679.09;;;24.94;24.49
48964;BME280;34776;48.180;16.420;2023-04-21T12:20:50;99682.81;;;25.01;24.35
48964;BME280;34776;48.180;16.420;2023-04-21T12:23:17;99677.13;;;25.27;24.12
48964;BME280;34776;48.180;16.420;2023-04-21T12:25:43;99675.78;;;25.23;24.55
48964;BME280;34776;48.180;16.420;2023-04-21T12:28:10;99668.94;;;25.36;24.38
48964;BME280;34776;48.180;16.420;2023-04-21T12:30:35;99671.03;;;25.57;24.71
48964;BME280;34776;48.180;16.420;2023-04-21T12:33:00;99669.75;;;25.67;24.15
48964;BME280;34776;48.180;16.420;2023-04-21T12:35:26;99671.22;;;25.47;24.15
48964;BME280;34776;48.180;16.420;2023-04-21T12:37:51;99675.72;;;25.40;24.06
48964;BME280;34776;48.180;16.420;2023-04-21T12:40:17;99668.63;;;25.30;24.53
48964;BME280;34776;48.180;16.420;2023-04-21T12:42:42;99665.56;;;25.25;24.75
48964;BME280;34776;48.180;16.420;2023-04-21T12:45:07;99657.44;;;25.09;25.08
48964;BME280;34776;48.180;16.420;2023-04-21T12:47:34;99661.50;;;25.21;24.96
48964;BME280;34776;48.180;16.420;2023-04-21T12:50:00;99657.47;;;25.01;24.55
48964;BME280;34776;48.180;16.420;2023-04-21T12:52:26;99662.56;;;25.12;24.10
48964;BME280;34776;48.180;16.420;2023-04-21T12:54:51;99656.75;;;25.15;24.07
48964;BME280;34776;48.180;16.420;2023-04-21T12:57:16;99652.81;;;24.86;23.97
48964;BME280;34776;48.180;16.420;2023-04-21T12:59:42;99655.56;;;24.70;23.95
48964;BME280;34776;48.180;16.420;2023-04-21T13:02:07;99652.88;;;24.37;24.12
48964;BME280;34776;48.180;16.420;2023-04-21T13:04:32;99649.84;;;23.99;24.09
48964;BME280;34776;48.180;16.420;2023-04-21T13:06:58;99647.97;;;24.08;24.58